Time;durP1;ratioP1;P1;durP2;ratioP2;P2;SDS_P1;SDS_P2;PMS_P1;PMS_P2;Temp;Humidity;BMP_temperature;BMP_pressure;BME280_temperature;BME280_humidity;BME280_pressure;Samples;Min_cycle;Max_cycle;Signal;HPM_P1;HPM_P2
2021/12/16 00:01:56;;;;;;;7.10;3.77;;;0.10;95.50;;;;;;5048875;28;20265;-70
2021/12/16 00:34:25;;;;;;;4.20;3.37;;;0.10;95.20;;;;;;5070076;28;20198;-72
2021/12/16 00:36:51;;;;;;;3.80;3.47;;;0.10;95.20;;;;;;5073441;28;20197;-73
2021/12/16 00:39:28;;;;;;;4.43;2.77;;;0.10;95.10;;;;;;5069702;28;20183;-72
2021/12/16 00:42:00;;;;;;;3.37;2.73;;;0.00;95.00;;;;;;5069079;28;20181;-72
2021/12/16 00:47:45;;;;;;;6.00;2.83;;;0.00;95.20;;;;;;5075739;28;20183;-72
2021/12/16 00:54:09;;;;;;;7.43;3.20;;;0.00;95.20;;;;;;5069948;28;20278;-73
2021/12/16 00:55:57;;;;;;;3.87;3.23;;;0.10;95.10;;;;;;5077163;28;20248;-72
2021/12/16 00:58:30;;;;;;;7.33;4.33;;;0.10;95.10;;;;;;5070276;28;20183;-72
2021/12/16 01:01:08;;;;;;;6.80;3.40;;;0.00;95.10;;;;;;5080173;28;20178;-72
2021/12/16 01:33:46;;;;;;;5.00;2.87;;;0.20;94.50;;;;;;5076712;28;20193;-72
2021/12/16 01:46:47;;;;;;;1.97;1.87;;;0.10;94.50;;;;;;5073402;28;20738;-72
2021/12/16 01:49:30;;;;;;;3.80;2.43;;;0.10;94.60;;;;;;5066972;28;20182;-71
2021/12/16 01:59:34;;;;;;;3.03;2.47;;;0.20;94.50;;;;;;5069642;28;20298;-70
2021/12/16 02:02:12;;;;;;;2.37;2.13;;;0.20;94.50;;;;;;5067339;28;20272;-71
2021/12/16 02:04:54;;;;;;;5.70;2.83;;;0.20;94.50;;;;;;5076160;28;20301;-71
2021/12/16 02:10:24;;;;;;;5.87;2.80;;;0.30;94.50;;;;;;5041749;28;20296;-70
2021/12/16 02:29:17;;;;;;;5.27;3.50;;;0.40;94.00;;;;;;5045539;28;20228;-72
2021/12/16 02:36:59;;;;;;;3.77;3.37;;;0.50;94.10;;;;;;5046042;28;20285;-71
2021/12/16 02:39:29;;;;;;;8.43;3.73;;;0.50;94.10;;;;;;5052829;28;20210;-72
2021/12/16 02:42:06;;;;;;;4.60;3.13;;;0.60;94.00;;;;;;5066909;28;20707;-72
2021/12/16 02:48:27;;;;;;;3.00;2.80;;;0.60;94.00;;;;;;5033709;28;20269;-71
2021/12/16 02:50:04;;;;;;;3.87;3.13;;;0.60;93.90;;;;;;5066055;28;20252;-72
2021/12/16 02:52:30;;;;;;;8.63;3.73;;;0.60;93.90;;;;;;5071148;28;20179;-71
2021/12/16 02:54:57;;;;;;;3.70;2.87;;;0.70;93.90;;;;;;5066013;28;20187;-72
2021/12/16 02:57:24;;;;;;;4.07;3.50;;;0.70;93.80;;;;;;5075037;28;20218;-71
2021/12/16 02:59:52;;;;;;;4.63;3.30;;;0.80;93.70;;;;;;5069258;28;20209;-72
2021/12/16 03:02:19;;;;;;;3.87;3.57;;;0.80;93.40;;;;;;5071892;28;20179;-71
2021/12/16 03:04:48;;;;;;;3.47;2.80;;;0.80;93.40;;;;;;5071593;28;20338;-72
2021/12/16 03:07:16;;;;;;;5.03;3.17;;;0.80;93.50;;;;;;5070648;28;20585;-71
2021/12/16 03:10:36;;;;;;;4.17;3.77;;;0.80;93.50;;;;;;5069893;28;20178;-71
2021/12/16 03:20:54;;;;;;;3.67;2.80;;;0.80;93.70;;;;;;5065992;28;20193;-72
2021/12/16 03:37:21;;;;;;;3.90;2.93;;;1.00;93.30;;;;;;4933324;29;20191;-71
2021/12/16 03:40:14;;;;;;;5.43;3.37;;;0.90;93.20;;;;;;4937563;29;20441;-71
2021/12/16 03:42:49;;;;;;;4.60;3.77;;;1.00;93.20;;;;;;4932039;29;20230;-71
2021/12/16 03:48:17;;;;;;;4.37;3.33;;;0.90;93.20;;;;;;4933226;29;20206;-72
2021/12/16 03:50:44;;;;;;;5.40;3.47;;;0.90;93.20;;;;;;4930145;29;20194;-71
2021/12/16 03:53:13;;;;;;;4.27;3.13;;;0.90;93.30;;;;;;4938021;28;20195;-71
2021/12/16 03:55:39;;;;;;;5.97;3.80;;;1.00;93.30;;;;;;4936050;28;21708;-71
2021/12/16 03:58:05;;;;;;;4.03;2.80;;;1.00;93.30;;;;;;4929174;29;20194;-71
2021/12/16 04:00:35;;;;;;;5.13;3.93;;;1.10;93.30;;;;;;4933175;29;20612;-71
2021/12/16 04:03:02;;;;;;;7.53;2.83;;;1.10;93.20;;;;;;4958637;28;20688;-71
2021/12/16 04:05:28;;;;;;;4.27;2.80;;;1.10;93.00;;;;;;4984082;28;20205;-72
2021/12/16 04:07:54;;;;;;;5.70;3.57;;;1.10;93.10;;;;;;4986060;28;20177;-72
2021/12/16 04:10:34;;;;;;;2.90;2.60;;;1.10;93.10;;;;;;4989754;28;20244;-72
2021/12/16 04:13:02;;;;;;;6.43;3.93;;;1.10;93.20;;;;;;5037229;28;20206;-72
2021/12/16 04:15:28;;;;;;;2.87;2.53;;;1.10;93.20;;;;;;5073195;28;20269;-72
2021/12/16 04:17:54;;;;;;;3.20;2.87;;;1.10;93.20;;;;;;5075586;28;20186;-71
2021/12/16 04:20:20;;;;;;;5.70;3.70;;;1.20;93.10;;;;;;5074618;28;20260;-71
2021/12/16 04:22:46;;;;;;;6.60;3.67;;;1.20;93.10;;;;;;5074186;28;20289;-71
2021/12/16 04:25:19;;;;;;;5.17;3.40;;;1.20;93.00;;;;;;5073340;28;20183;-71
2021/12/16 04:27:48;;;;;;;4.53;2.80;;;1.10;93.10;;;;;;5073032;28;20182;-71
2021/12/16 04:30:15;;;;;;;6.07;3.50;;;1.20;93.20;;;;;;5070948;28;20262;-72
2021/12/16 04:32:41;;;;;;;3.33;3.03;;;1.10;93.20;;;;;;5076011;28;20729;-72
2021/12/16 04:35:08;;;;;;;3.40;2.80;;;1.20;93.30;;;;;;5070594;28;20282;-73
2021/12/16 04:37:35;;;;;;;5.20;3.23;;;1.20;93.20;;;;;;5070952;28;20178;-72
2021/12/16 04:40:02;;;;;;;4.50;3.40;;;1.30;93.10;;;;;;5076469;28;20186;-71
2021/12/16 04:42:28;;;;;;;3.97;3.07;;;1.20;92.90;;;;;;5068164;28;21015;-73
2021/12/16 04:44:54;;;;;;;3.17;2.87;;;1.20;92.90;;;;;;5077470;28;20240;-73
2021/12/16 04:47:20;;;;;;;4.07;3.03;;;1.20;93.10;;;;;;5069316;28;20669;-73
2021/12/16 04:49:46;;;;;;;7.70;2.97;;;1.20;93.20;;;;;;5072741;28;20739;-74
2021/12/16 04:52:16;;;;;;;5.57;3.30;;;1.20;93.30;;;;;;5070741;28;20193;-72
2021/12/16 04:54:42;;;;;;;3.30;3.00;;;1.20;93.40;;;;;;5067235;28;20640;-72
2021/12/16 04:57:08;;;;;;;4.10;3.17;;;1.20;93.60;;;;;;5075053;28;20736;-71
2021/12/16 04:59:36;;;;;;;3.10;2.30;;;1.20;93.80;;;;;;5070053;28;20240;-71
2021/12/16 05:02:09;;;;;;;3.17;2.80;;;1.10;94.00;;;;;;5074161;28;20265;-72
2021/12/16 05:04:35;;;;;;;6.47;3.13;;;1.20;94.10;;;;;;5071520;28;20214;-71
2021/12/16 05:07:01;;;;;;;6.17;3.73;;;1.20;94.10;;;;;;5075351;28;20189;-71
2021/12/16 05:12:11;;;;;;;5.90;3.53;;;1.10;94.70;;;;;;5078397;28;20190;-71
2021/12/16 05:14:37;;;;;;;3.07;2.87;;;1.10;94.80;;;;;;5069940;28;20205;-72
2021/12/16 05:17:10;;;;;;;3.57;2.60;;;1.10;95.10;;;;;;5076288;28;20187;-71
2021/12/16 05:19:38;;;;;;;3.37;3.03;;;1.10;95.30;;;;;;5072185;28;20178;-71
2021/12/16 05:24:50;;;;;;;3.60;2.60;;;1.00;95.60;;;;;;5071359;28;20210;-71
2021/12/16 05:27:15;;;;;;;4.00;3.33;;;0.90;95.60;;;;;;5069511;28;20309;-71
2021/12/16 05:29:41;;;;;;;2.30;2.20;;;0.90;95.70;;;;;;5070749;28;20241;-71
2021/12/16 05:32:07;;;;;;;5.67;3.10;;;0.90;95.90;;;;;;5070156;28;20945;-71
2021/12/16 05:34:33;;;;;;;4.03;3.73;;;1.00;95.90;;;;;;5071982;28;20198;-72
2021/12/16 05:37:01;;;;;;;6.40;2.80;;;0.90;96.00;;;;;;5072264;28;20565;-72
2021/12/16 05:39:27;;;;;;;3.53;2.87;;;0.90;96.10;;;;;;5071806;28;20182;-71
2021/12/16 05:41:53;;;;;;;3.27;2.87;;;0.90;96.10;;;;;;5074618;28;20647;-72
2021/12/16 05:44:19;;;;;;;2.10;2.00;;;0.90;96.00;;;;;;5069461;28;20598;-73
2021/12/16 05:46:45;;;;;;;6.17;2.80;;;0.90;95.90;;;;;;5070002;28;20179;-72
2021/12/16 05:49:13;;;;;;;2.17;1.97;;;0.90;96.00;;;;;;5076870;28;20182;-72
2021/12/16 05:51:42;;;;;;;4.27;2.63;;;0.90;95.90;;;;;;5068748;28;20175;-73
2021/12/16 05:54:09;;;;;;;3.00;2.23;;;0.90;95.90;;;;;;5068196;28;20205;-73
2021/12/16 05:56:37;;;;;;;3.00;2.80;;;1.00;95.80;;;;;;5071968;28;20266;-73
2021/12/16 05:59:04;;;;;;;2.30;2.20;;;1.00;95.70;;;;;;5074864;28;20183;-72
2021/12/16 06:01:33;;;;;;;4.60;3.00;;;1.00;95.60;;;;;;5072930;28;20611;-72
2021/12/16 06:04:00;;;;;;;2.47;2.30;;;1.00;95.70;;;;;;5073152;28;20238;-72
2021/12/16 06:06:26;;;;;;;3.00;2.60;;;1.10;95.50;;;;;;5072731;28;20187;-72
2021/12/16 06:08:52;;;;;;;3.13;2.67;;;1.10;95.20;;;;;;5069444;28;20630;-72
2021/12/16 06:11:26;;;;;;;3.97;3.33;;;1.00;95.20;;;;;;5072863;28;20187;-72
2021/12/16 06:27:32;;;;;;;3.90;3.07;;;1.10;94.60;;;;;;5068482;28;20239;-74
2021/12/16 06:29:58;;;;;;;3.97;2.47;;;1.10;94.50;;;;;;5072287;28;20316;-74
2021/12/16 06:32:26;;;;;;;3.37;2.53;;;1.10;94.50;;;;;;5069514;28;20202;-74
2021/12/16 06:34:55;;;;;;;3.30;2.20;;;1.10;94.50;;;;;;5067215;28;20201;-74
2021/12/16 06:37:21;;;;;;;2.50;2.40;;;1.10;94.60;;;;;;5071970;28;20895;-76
2021/12/16 06:39:47;;;;;;;2.13;2.03;;;1.10;94.60;;;;;;5068067;28;20186;-73
2021/12/16 06:42:13;;;;;;;2.43;2.17;;;1.10;94.60;;;;;;5076243;28;20577;-73
2021/12/16 06:44:45;;;;;;;3.40;2.07;;;1.20;94.50;;;;;;5072711;28;20275;-73
2021/12/16 06:47:17;;;;;;;3.63;2.83;;;1.10;94.40;;;;;;5069811;28;20927;-73
2021/12/16 06:49:46;;;;;;;1.97;1.87;;;1.10;94.40;;;;;;5076646;28;20184;-73
2021/12/16 06:52:15;;;;;;;2.73;1.97;;;1.10;94.50;;;;;;5064721;28;20179;-73
2021/12/16 06:55:02;;;;;;;2.67;2.47;;;1.10;94.50;;;;;;5074599;28;20179;-70
2021/12/16 06:57:42;;;;;;;2.57;2.37;;;1.10;94.50;;;;;;5074501;28;20167;-71
2021/12/16 07:00:20;;;;;;;4.17;2.20;;;1.20;94.40;;;;;;5071814;28;20273;-70
2021/12/16 07:03:06;;;;;;;2.43;2.13;;;1.20;94.10;;;;;;5070478;28;20232;-70
2021/12/16 07:05:38;;;;;;;3.53;2.00;;;1.30;93.80;;;;;;5073837;28;20705;-74
2021/12/16 07:08:07;;;;;;;2.90;2.07;;;1.30;93.40;;;;;;5068309;28;20188;-73
2021/12/16 07:10:33;;;;;;;3.60;2.97;;;1.30;93.30;;;;;;5071077;28;20202;-74
2021/12/16 07:13:06;;;;;;;4.13;2.23;;;1.40;93.10;;;;;;5072075;28;20339;-75
2021/12/16 07:15:33;;;;;;;2.47;2.23;;;1.50;92.70;;;;;;5078781;28;20233;-73
2021/12/16 07:17:58;;;;;;;2.07;1.63;;;1.50;92.60;;;;;;5067463;28;20203;-73
2021/12/16 07:20:28;;;;;;;1.93;1.83;;;1.50;92.20;;;;;;5073812;28;20205;-72
2021/12/16 07:22:55;;;;;;;3.30;2.23;;;1.50;92.00;;;;;;5073304;28;20208;-73
2021/12/16 07:25:21;;;;;;;2.67;2.37;;;1.60;92.00;;;;;;5073834;28;20207;-73
2021/12/16 07:27:47;;;;;;;1.83;1.70;;;1.60;91.80;;;;;;5072511;28;20306;-73
2021/12/16 07:30:16;;;;;;;3.93;2.00;;;1.60;91.80;;;;;;5072198;28;20181;-73
2021/12/16 07:32:42;;;;;;;2.83;2.40;;;1.60;91.50;;;;;;5073519;28;20181;-74
2021/12/16 07:35:12;;;;;;;2.20;1.37;;;1.60;91.40;;;;;;5079504;28;20189;-73
2021/12/16 07:37:38;;;;;;;2.33;2.03;;;1.70;91.20;;;;;;5074503;28;20324;-73
2021/12/16 07:40:07;;;;;;;1.50;1.40;;;1.70;91.00;;;;;;5076040;28;20643;-73
2021/12/16 07:42:44;;;;;;;2.83;2.10;;;1.70;91.00;;;;;;5071347;28;20191;-74
2021/12/16 07:45:12;;;;;;;1.87;1.63;;;1.70;90.80;;;;;;5076981;28;20357;-74
2021/12/16 07:47:38;;;;;;;4.87;1.90;;;1.80;90.80;;;;;;5078327;28;20187;-74
2021/12/16 07:50:05;;;;;;;3.10;2.03;;;1.80;90.50;;;;;;5076631;28;21049;-74
2021/12/16 07:52:33;;;;;;;4.60;2.20;;;1.80;90.20;;;;;;5075929;28;20581;-73
2021/12/16 07:55:01;;;;;;;1.83;1.73;;;1.80;90.10;;;;;;5080995;28;20190;-73
2021/12/16 07:57:27;;;;;;;2.70;2.10;;;1.80;90.00;;;;;;5080596;28;20258;-73
2021/12/16 07:59:53;;;;;;;2.50;2.17;;;1.80;90.10;;;;;;5073498;28;20182;-73
2021/12/16 08:02:18;;;;;;;1.97;1.87;;;1.90;90.20;;;;;;5080126;28;20663;-73
2021/12/16 08:04:45;;;;;;;2.17;1.93;;;1.90;89.90;;;;;;5079263;28;20209;-73
2021/12/16 08:07:14;;;;;;;1.80;1.73;;;2.00;90.00;;;;;;5076998;28;20179;-73
2021/12/16 08:09:41;;;;;;;1.97;1.87;;;2.00;89.90;;;;;;5080283;28;20183;-74
2021/12/16 08:12:10;;;;;;;2.07;1.90;;;2.10;89.90;;;;;;5076230;28;20187;-74
2021/12/16 08:14:35;;;;;;;1.87;1.77;;;2.00;90.10;;;;;;5074050;28;20182;-74
2021/12/16 08:17:01;;;;;;;2.43;2.23;;;2.10;90.30;;;;;;5076509;28;20175;-74
2021/12/16 08:19:27;;;;;;;2.27;2.17;;;2.00;90.50;;;;;;5075916;28;20171;-73
2021/12/16 08:21:53;;;;;;;1.90;1.73;;;2.10;90.70;;;;;;5078816;28;20175;-74
2021/12/16 08:24:19;;;;;;;3.33;3.07;;;2.10;90.80;;;;;;5072620;28;20695;-73
2021/12/16 08:26:48;;;;;;;2.67;2.27;;;2.10;90.80;;;;;;5076691;28;20178;-74
2021/12/16 08:29:14;;;;;;;2.63;2.43;;;2.20;91.00;;;;;;5074971;28;20183;-74
2021/12/16 08:31:40;;;;;;;2.90;2.70;;;2.20;91.10;;;;;;5072308;28;20178;-75
2021/12/16 08:34:06;;;;;;;3.00;2.40;;;2.20;90.90;;;;;;5071298;28;20187;-73
2021/12/16 08:36:33;;;;;;;3.03;2.70;;;2.20;91.10;;;;;;5079253;28;20253;-74
2021/12/16 08:39:00;;;;;;;4.23;2.50;;;2.20;90.70;;;;;;5073215;28;20175;-73
2021/12/16 08:41:32;;;;;;;4.03;2.67;;;2.20;90.90;;;;;;5079921;28;20502;-73
2021/12/16 08:43:59;;;;;;;3.27;3.07;;;2.20;90.90;;;;;;5078696;28;20215;-73
2021/12/16 08:46:28;;;;;;;5.27;3.03;;;2.20;91.00;;;;;;5073190;28;20957;-73
2021/12/16 08:48:54;;;;;;;3.00;2.77;;;2.20;91.10;;;;;;5072438;28;20187;-74
2021/12/16 08:51:23;;;;;;;3.70;2.77;;;2.20;91.30;;;;;;5077400;28;20239;-73
2021/12/16 08:53:51;;;;;;;5.03;3.03;;;2.10;91.60;;;;;;5070841;28;20182;-75
2021/12/16 08:56:17;;;;;;;3.77;3.00;;;2.20;91.50;;;;;;5078571;28;20183;-74
2021/12/16 08:58:43;;;;;;;4.20;2.90;;;2.20;91.30;;;;;;5079655;28;20174;-73
2021/12/16 09:01:20;;;;;;;3.27;2.37;;;2.10;91.00;;;;;;5074493;28;20179;-74
2021/12/16 09:03:47;;;;;;;3.97;2.53;;;2.10;90.80;;;;;;5077803;28;20202;-73
2021/12/16 09:06:14;;;;;;;5.53;2.70;;;2.20;90.80;;;;;;5080606;28;20644;-72
2021/12/16 09:08:40;;;;;;;9.33;2.97;;;2.20;90.50;;;;;;5076643;28;20582;-74
2021/12/16 09:11:08;;;;;;;3.17;2.87;;;2.20;90.50;;;;;;5074344;28;20234;-72
2021/12/16 09:13:38;;;;;;;3.50;3.03;;;2.30;90.30;;;;;;5071650;28;20608;-72
2021/12/16 09:16:07;;;;;;;3.17;2.63;;;2.40;90.10;;;;;;5076877;28;20178;-73
2021/12/16 09:18:41;;;;;;;5.33;2.30;;;2.50;89.80;;;;;;5072680;28;20183;-74
2021/12/16 09:21:13;;;;;;;1.97;1.87;;;2.60;90.30;;;;;;5076879;28;20656;-74
2021/12/16 09:23:40;;;;;;;3.03;1.97;;;2.70;89.90;;;;;;5073924;28;20198;-74
2021/12/16 09:26:06;;;;;;;2.20;1.83;;;2.80;89.70;;;;;;5078960;28;20231;-74
2021/12/16 09:28:32;;;;;;;4.40;2.97;;;2.80;88.80;;;;;;5077101;28;20699;-74
2021/12/16 09:30:58;;;;;;;2.87;1.70;;;2.80;88.60;;;;;;5073604;28;20187;-73
2021/12/16 09:33:26;;;;;;;2.57;2.47;;;2.80;88.50;;;;;;5073791;28;20679;-73
2021/12/16 09:35:59;;;;;;;3.90;2.10;;;2.70;88.10;;;;;;5071724;28;20194;-73
2021/12/16 09:38:27;;;;;;;2.03;1.93;;;2.70;88.50;;;;;;5073889;28;20174;-73
2021/12/16 09:40:55;;;;;;;2.53;2.30;;;2.80;88.60;;;;;;5077189;28;20728;-74
2021/12/16 09:43:30;;;;;;;2.80;2.43;;;2.80;88.70;;;;;;5072222;28;20202;-73
2021/12/16 09:46:00;;;;;;;1.60;1.50;;;2.80;88.60;;;;;;5072393;28;20187;-72
2021/12/16 09:48:26;;;;;;;3.27;1.80;;;2.70;88.60;;;;;;5074382;28;20218;-73
2021/12/16 09:50:53;;;;;;;3.47;1.80;;;2.70;88.70;;;;;;5075011;28;20695;-73
2021/12/16 09:53:19;;;;;;;1.90;1.80;;;2.70;88.90;;;;;;5074663;28;21035;-74
2021/12/16 09:55:50;;;;;;;1.87;1.73;;;2.70;89.00;;;;;;5072932;28;20281;-73
2021/12/16 09:58:16;;;;;;;2.70;2.60;;;2.60;89.10;;;;;;5074140;28;20211;-72
2021/12/16 10:00:42;;;;;;;1.93;1.83;;;2.60;89.40;;;;;;5081135;28;20174;-75
2021/12/16 10:03:09;;;;;;;1.63;1.63;;;2.60;89.50;;;;;;5071485;28;20779;-73
2021/12/16 10:05:34;;;;;;;2.47;1.73;;;2.60;89.90;;;;;;5076446;28;20211;-76
2021/12/16 10:08:04;;;;;;;1.73;1.50;;;2.60;90.00;;;;;;5073007;28;20229;-76
2021/12/16 10:10:31;;;;;;;2.27;2.07;;;2.60;90.20;;;;;;5074859;28;20221;-77
2021/12/16 10:13:00;;;;;;;2.37;2.20;;;2.60;90.10;;;;;;5073709;28;20210;-77
2021/12/16 10:18:07;;;;;;;2.53;1.90;;;2.50;90.20;;;;;;5071671;28;20208;-76
2021/12/16 10:20:49;;;;;;;1.83;1.73;;;2.60;90.40;;;;;;5065410;28;20333;-76
2021/12/16 10:23:43;;;;;;;2.00;1.80;;;2.70;90.20;;;;;;5070914;28;21133;-76
2021/12/16 10:26:22;;;;;;;1.57;1.43;;;2.70;90.00;;;;;;5068773;28;20191;-75
2021/12/16 10:28:56;;;;;;;2.63;1.90;;;2.70;90.10;;;;;;5067739;28;20802;-74
2021/12/16 10:31:32;;;;;;;1.40;1.30;;;2.70;90.20;;;;;;5071034;28;20183;-74
2021/12/16 10:33:58;;;;;;;2.13;1.97;;;2.80;90.20;;;;;;5073498;28;20212;-73
2021/12/16 10:36:28;;;;;;;1.83;1.67;;;2.80;90.20;;;;;;5072991;28;20179;-74
2021/12/16 10:38:55;;;;;;;2.23;1.80;;;2.70;90.10;;;;;;5073817;28;20236;-75
2021/12/16 10:41:47;;;;;;;2.03;1.93;;;2.80;90.10;;;;;;5069226;28;20953;-76
2021/12/16 10:44:14;;;;;;;2.60;2.37;;;2.80;90.10;;;;;;5072320;28;20206;-74
2021/12/16 10:46:46;;;;;;;1.30;1.20;;;2.70;90.20;;;;;;5071115;28;20209;-75
2021/12/16 10:49:23;;;;;;;1.63;1.50;;;2.70;90.40;;;;;;5072607;28;20179;-74
2021/12/16 10:51:57;;;;;;;1.93;1.83;;;2.70;90.20;;;;;;5070226;28;20178;-76
2021/12/16 10:54:37;;;;;;;1.53;1.53;;;2.70;90.40;;;;;;5071645;28;20183;-75
2021/12/16 10:57:04;;;;;;;3.27;1.57;;;2.70;90.40;;;;;;5074089;28;20174;-74
2021/12/16 10:59:38;;;;;;;2.40;1.73;;;2.70;90.40;;;;;;5070214;28;20615;-74
2021/12/16 11:02:09;;;;;;;2.13;2.03;;;2.60;90.40;;;;;;5070203;28;20668;-74
2021/12/16 11:04:46;;;;;;;6.60;2.20;;;2.50;90.80;;;;;;5067479;28;20218;-74
2021/12/16 11:07:18;;;;;;;2.10;2.00;;;2.50;91.00;;;;;;5072550;28;20186;-74
2021/12/16 11:10:04;;;;;;;2.93;2.73;;;2.50;91.00;;;;;;5067663;28;20198;-75
2021/12/16 11:12:35;;;;;;;2.60;2.47;;;2.40;91.30;;;;;;5070253;28;20189;-72
2021/12/16 11:15:09;;;;;;;2.13;2.03;;;2.50;91.30;;;;;;5076164;28;20179;-75
2021/12/16 11:18:02;;;;;;;2.10;2.00;;;2.50;90.90;;;;;;5067313;28;20201;-75
2021/12/16 11:20:45;;;;;;;1.90;1.80;;;2.50;90.70;;;;;;5067167;28;20183;-74
2021/12/16 11:23:23;;;;;;;4.50;2.60;;;2.50;90.80;;;;;;5066079;28;20207;-74
2021/12/16 11:25:57;;;;;;;2.53;2.40;;;2.50;90.80;;;;;;5067599;28;20299;-73
2021/12/16 11:28:31;;;;;;;8.73;2.93;;;2.50;90.80;;;;;;5067312;28;20183;-76
2021/12/16 11:31:04;;;;;;;3.03;2.80;;;2.50;90.80;;;;;;5067199;28;21006;-76
2021/12/16 11:33:42;;;;;;;2.93;2.37;;;2.50;91.40;;;;;;5068506;28;20198;-76
2021/12/16 11:36:21;;;;;;;3.93;2.70;;;2.50;90.80;;;;;;5072683;28;20199;-77
2021/12/16 11:38:54;;;;;;;2.67;2.00;;;2.50;90.40;;;;;;5072172;28;20197;-76
2021/12/16 11:41:39;;;;;;;2.03;1.93;;;2.50;90.40;;;;;;5073837;28;20178;-76
2021/12/16 11:44:18;;;;;;;2.20;2.10;;;2.40;90.50;;;;;;5063500;28;20218;-76
2021/12/16 11:46:59;;;;;;;2.50;2.30;;;2.40;90.60;;;;;;5069451;28;20198;-77
2021/12/16 11:49:42;;;;;;;2.87;1.93;;;2.50;90.60;;;;;;5072238;28;20206;-77
2021/12/16 11:52:18;;;;;;;2.87;1.40;;;2.40;90.40;;;;;;5070439;28;20185;-76
2021/12/16 11:55:05;;;;;;;3.27;2.20;;;2.40;90.60;;;;;;5070175;28;20201;-76
2021/12/16 11:57:41;;;;;;;2.33;2.13;;;2.30;90.70;;;;;;5070759;28;20763;-76
2021/12/16 12:00:09;;;;;;;1.50;1.40;;;2.40;90.90;;;;;;5064297;28;20323;-76
2021/12/16 12:02:41;;;;;;;2.20;2.00;;;2.30;90.70;;;;;;5069709;28;20202;-76
2021/12/16 12:05:37;;;;;;;1.60;1.60;;;2.30;90.90;;;;;;5071623;28;20262;-76
2021/12/16 12:08:11;;;;;;;2.57;1.50;;;2.30;90.90;;;;;;5070469;28;20187;-76
2021/12/16 12:10:42;;;;;;;2.37;2.27;;;2.30;91.10;;;;;;5073669;28;20252;-76
2021/12/16 12:13:11;;;;;;;2.07;1.97;;;2.30;91.30;;;;;;5069833;28;20715;-76
2021/12/16 12:16:04;;;;;;;5.10;2.70;;;2.30;91.50;;;;;;5069351;28;20194;-76
2021/12/16 12:18:57;;;;;;;5.33;2.87;;;2.30;91.60;;;;;;5071947;28;20704;-76
2021/12/16 12:21:37;;;;;;;3.87;2.80;;;2.30;91.60;;;;;;5070656;28;20178;-77
2021/12/16 12:24:20;;;;;;;4.03;3.50;;;2.30;91.60;;;;;;5073567;28;20203;-77
2021/12/16 12:26:53;;;;;;;3.37;3.17;;;2.40;91.60;;;;;;5071873;28;20192;-77
2021/12/16 12:29:40;;;;;;;7.90;3.40;;;2.40;91.60;;;;;;5074352;28;20176;-75
2021/12/16 12:32:18;;;;;;;3.87;3.50;;;2.40;91.70;;;;;;5072506;28;20183;-75
2021/12/16 12:34:46;;;;;;;3.87;3.47;;;2.40;91.60;;;;;;5073857;28;20665;-77
2021/12/16 12:37:17;;;;;;;3.87;2.20;;;2.50;91.60;;;;;;5068969;28;20234;-75
2021/12/16 12:39:46;;;;;;;3.47;2.73;;;2.50;91.50;;;;;;5071183;28;20193;-76
2021/12/16 12:42:14;;;;;;;2.13;1.97;;;2.50;91.20;;;;;;5069648;28;20178;-75
2021/12/16 12:44:41;;;;;;;2.57;2.40;;;2.50;91.10;;;;;;5073678;28;21168;-76
2021/12/16 12:47:12;;;;;;;4.30;3.83;;;2.50;90.90;;;;;;5072957;28;20179;-74
2021/12/16 12:49:38;;;;;;;5.70;3.13;;;2.50;91.00;;;;;;5075498;28;20178;-76
2021/12/16 12:52:10;;;;;;;4.60;3.43;;;2.50;91.10;;;;;;5070755;28;20190;-76
2021/12/16 12:54:38;;;;;;;4.97;3.87;;;2.50;91.00;;;;;;5072257;28;20181;-76
2021/12/16 12:57:30;;;;;;;3.57;3.27;;;2.60;91.00;;;;;;5072976;28;20331;-76
2021/12/16 12:59:57;;;;;;;4.90;3.17;;;2.60;90.90;;;;;;5074256;28;20247;-76
2021/12/16 13:02:34;;;;;;;3.70;3.40;;;2.50;90.90;;;;;;5074443;28;20878;-76
2021/12/16 13:05:16;;;;;;;4.23;3.80;;;2.60;91.00;;;;;;5072745;28;20222;-76
2021/12/16 13:07:52;;;;;;;8.50;4.30;;;2.60;90.90;;;;;;5070322;28;20261;-76
2021/12/16 13:10:28;;;;;;;5.67;3.80;;;2.70;91.00;;;;;;5070788;28;20186;-75
2021/12/16 13:13:17;;;;;;;3.73;3.40;;;2.70;90.80;;;;;;5069763;28;20261;-75
2021/12/16 13:15:51;;;;;;;6.87;4.37;;;2.70;90.70;;;;;;5068502;28;20206;-75
2021/12/16 13:27:02;;;;;;;4.37;3.97;;;2.80;90.10;;;;;;5071617;28;20660;-76
2021/12/16 13:32:26;;;;;;;7.57;3.83;;;2.80;90.00;;;;;;5072697;28;20179;-76
2021/12/16 13:34:52;;;;;;;4.80;4.13;;;2.70;90.10;;;;;;5070135;28;20229;-76
2021/12/16 13:37:44;;;;;;;6.93;4.70;;;2.70;90.30;;;;;;5068053;28;20245;-74
2021/12/16 13:40:30;;;;;;;7.50;4.70;;;2.70;90.40;;;;;;5067328;28;20283;-74
2021/12/16 13:43:15;;;;;;;7.83;5.13;;;2.80;90.10;;;;;;5068454;28;20204;-75
2021/12/16 13:45:58;;;;;;;8.83;5.23;;;2.80;90.20;;;;;;5072069;28;20186;-75
2021/12/16 13:49:01;;;;;;;6.87;4.97;;;2.80;90.30;;;;;;5071392;28;20182;-76
2021/12/16 14:03:09;;;;;;;2.87;2.60;;;2.60;89.90;;;;;;5083514;28;20216;-76
2021/12/16 14:09:02;;;;;;;6.77;3.70;;;2.50;89.80;;;;;;5018944;28;20219;-75
2021/12/16 14:14:31;;;;;;;3.30;3.00;;;2.50;89.90;;;;;;4904101;29;20234;-76
2021/12/16 14:17:12;;;;;;;5.07;3.37;;;2.50;89.80;;;;;;4888885;29;20291;-76
2021/12/16 14:25:52;;;;;;;4.87;4.00;;;2.60;89.70;;;;;;4905817;29;20195;-76
2021/12/16 14:45:30;;;;;;;5.27;3.20;;;2.30;91.00;;;;;;4919560;28;20229;-77
2021/12/16 14:50:51;;;;;;;3.47;2.27;;;2.20;91.00;;;;;;5066382;28;20214;-76
2021/12/16 14:53:27;;;;;;;2.73;2.53;;;2.30;91.00;;;;;;5071380;28;20206;-75
2021/12/16 14:55:58;;;;;;;7.57;3.10;;;2.30;91.30;;;;;;5068645;28;20177;-77
2021/12/16 14:58:25;;;;;;;3.97;3.50;;;2.40;91.40;;;;;;5070193;28;20236;-76
2021/12/16 15:00:58;;;;;;;7.03;3.07;;;2.40;90.70;;;;;;5066154;28;20175;-76
2021/12/16 15:03:39;;;;;;;3.97;3.10;;;2.40;90.60;;;;;;5071718;28;20711;-75
2021/12/16 15:06:14;;;;;;;5.77;4.10;;;2.40;90.50;;;;;;5063721;28;20202;-77
2021/12/16 15:08:55;;;;;;;4.97;3.50;;;2.40;90.50;;;;;;5070785;28;20228;-77
2021/12/16 15:11:35;;;;;;;3.67;3.13;;;2.40;90.40;;;;;;5066210;28;20189;-76
2021/12/16 15:14:07;;;;;;;3.60;2.63;;;2.40;90.00;;;;;;5067300;28;20190;-77
2021/12/16 15:17:04;;;;;;;3.87;3.23;;;2.40;90.00;;;;;;5070396;28;20642;-77
2021/12/16 15:44:54;;;;;;;3.33;3.03;;;2.30;90.40;;;;;;5065962;28;20620;-73
2021/12/16 15:47:21;;;;;;;3.60;3.30;;;2.30;90.40;;;;;;5070065;28;20200;-74
2021/12/16 15:49:47;;;;;;;3.30;3.07;;;2.40;90.40;;;;;;5064584;28;20175;-73
2021/12/16 15:52:15;;;;;;;4.23;3.63;;;2.30;90.50;;;;;;5073954;28;20349;-73
2021/12/16 15:54:49;;;;;;;3.97;3.43;;;2.30;90.40;;;;;;5064793;28;20252;-73
2021/12/16 15:57:17;;;;;;;5.40;3.80;;;2.40;90.40;;;;;;5071887;28;20211;-73
2021/12/16 15:59:50;;;;;;;4.00;3.53;;;2.40;90.30;;;;;;5073679;28;20220;-73
2021/12/16 16:02:17;;;;;;;4.30;3.80;;;2.30;90.40;;;;;;5074071;28;20183;-73
2021/12/16 16:04:43;;;;;;;6.37;3.93;;;2.40;90.50;;;;;;5074135;28;20214;-73
2021/12/16 16:07:12;;;;;;;5.53;2.97;;;2.40;90.40;;;;;;5070454;28;20183;-73
2021/12/16 16:09:53;;;;;;;4.23;3.60;;;2.30;90.30;;;;;;5069404;28;20570;-73
2021/12/16 16:12:24;;;;;;;4.03;3.63;;;2.30;90.50;;;;;;5069923;28;20981;-73
2021/12/16 16:14:50;;;;;;;6.93;4.30;;;2.40;90.60;;;;;;5069515;28;20187;-73
2021/12/16 16:17:22;;;;;;;6.27;4.03;;;2.50;90.40;;;;;;5069296;28;20182;-73
2021/12/16 16:19:51;;;;;;;5.90;3.70;;;2.50;90.10;;;;;;5067189;28;20301;-73
2021/12/16 16:22:18;;;;;;;5.27;3.30;;;2.50;90.00;;;;;;5066205;28;20731;-74
2021/12/16 16:24:47;;;;;;;4.43;3.73;;;2.50;90.00;;;;;;5066230;28;20252;-72
2021/12/16 16:27:17;;;;;;;4.13;3.73;;;2.50;90.00;;;;;;5067884;28;20645;-73
2021/12/16 16:29:46;;;;;;;5.93;4.00;;;2.50;90.00;;;;;;5073924;28;20193;-73
2021/12/16 16:32:12;;;;;;;7.40;4.73;;;2.50;90.00;;;;;;5067671;28;20301;-71
2021/12/16 16:34:58;;;;;;;4.53;4.03;;;2.50;90.00;;;;;;5072797;28;20262;-72
2021/12/16 16:37:31;;;;;;;5.77;3.23;;;2.50;90.00;;;;;;5070788;28;20266;-73
2021/12/16 16:40:02;;;;;;;6.77;4.63;;;2.50;90.00;;;;;;5075483;28;20189;-73
2021/12/16 16:42:37;;;;;;;6.13;3.57;;;2.50;89.90;;;;;;5068340;28;20278;-72
2021/12/16 16:45:05;;;;;;;6.63;3.60;;;2.50;89.90;;;;;;5071666;28;20604;-72
2021/12/16 16:47:46;;;;;;;4.60;3.60;;;2.50;89.90;;;;;;5071772;28;20224;-72
2021/12/16 16:50:13;;;;;;;8.17;3.70;;;2.50;89.90;;;;;;5068952;28;20252;-72
2021/12/16 16:52:43;;;;;;;6.23;4.10;;;2.50;89.90;;;;;;5068247;28;20212;-72
2021/12/16 16:55:21;;;;;;;6.53;4.77;;;2.50;89.90;;;;;;5073429;28;20257;-73
2021/12/16 16:57:54;;;;;;;6.60;4.27;;;2.50;89.90;;;;;;5070124;28;20183;-74
2021/12/16 17:00:22;;;;;;;5.20;4.20;;;2.50;89.90;;;;;;5072260;28;20194;-72
2021/12/16 17:02:52;;;;;;;8.47;3.77;;;2.50;89.90;;;;;;5075161;28;20228;-73
2021/12/16 17:05:27;;;;;;;5.17;4.20;;;2.50;89.70;;;;;;5073855;28;20308;-73
2021/12/16 17:08:04;;;;;;;6.20;3.93;;;2.60;89.70;;;;;;5071630;28;20179;-72
2021/12/16 17:10:32;;;;;;;7.37;4.47;;;2.60;89.40;;;;;;5072484;28;20186;-73
2021/12/16 17:13:18;;;;;;;5.03;3.83;;;2.60;89.20;;;;;;5069325;28;20568;-74
2021/12/16 17:18:26;;;;;;;3.77;3.40;;;2.60;89.10;;;;;;5074671;28;20191;-74
2021/12/16 17:20:56;;;;;;;4.20;3.80;;;2.60;89.00;;;;;;5073411;28;21876;-73
2021/12/16 17:23:25;;;;;;;5.77;4.00;;;2.60;88.70;;;;;;5074135;28;20215;-73